createdAt,value
2022-10-15T00:03:00.555Z,29.60
2022-10-15T00:06:07.969Z,29.60
2022-10-15T00:09:12.231Z,29.40
2022-10-15T00:12:14.081Z,29.40
2022-10-15T00:15:16.627Z,29.10
2022-10-15T00:18:18.462Z,28.80
2022-10-15T00:21:21.486Z,29.10
2022-10-15T00:24:23.329Z,28.80
2022-10-15T00:27:25.495Z,28.60
2022-10-15T00:30:27.486Z,29.10
2022-10-15T00:33:29.572Z,29.30
2022-10-15T00:36:34.545Z,28.90
2022-10-15T00:39:37.631Z,28.50
2022-10-15T00:42:39.467Z,28.60
2022-10-15T00:45:41.591Z,28.70
2022-10-15T00:48:44.618Z,28.70
2022-10-15T00:51:54.363Z,28.50
2022-10-15T00:55:02.156Z,28.70
2022-10-15T00:58:19.922Z,28.70
2022-10-15T01:01:22.195Z,29.00
2022-10-15T01:04:25.038Z,29.20
2022-10-15T01:07:27.021Z,29.30
2022-10-15T01:10:40.546Z,29.70
2022-10-15T01:14:04.663Z,29.10
2022-10-15T01:17:27.831Z,29.20
2022-10-15T01:20:47.724Z,29.00
2022-10-15T01:24:11.278Z,28.70
2022-10-15T01:27:36.102Z,28.90
2022-10-15T01:30:47.330Z,28.80
2022-10-15T01:34:02.528Z,28.50
2022-10-15T01:37:19.257Z,28.40
2022-10-15T01:40:32.189Z,28.10
2022-10-15T01:43:40.348Z,27.90
2022-10-15T01:47:03.904Z,27.90
2022-10-15T01:50:08.771Z,28.10
2022-10-15T01:53:15.992Z,28.60
2022-10-15T01:56:23.197Z,28.50
2022-10-15T01:59:29.826Z,28.50
2022-10-15T02:02:31.933Z,28.70
2022-10-15T02:05:40.966Z,28.60
2022-10-15T02:08:50.255Z,28.60
2022-10-15T02:12:28.846Z,28.20
2022-10-15T02:15:52.674Z,28.70
2022-10-15T02:19:15.091Z,28.10
2022-10-15T02:22:19.701Z,27.60
2022-10-15T02:25:24.545Z,27.90
2022-10-15T02:28:28.637Z,28.30
2022-10-15T02:31:33.384Z,28.30
2022-10-15T02:34:36.460Z,28.30
2022-10-15T02:37:41.592Z,28.30
2022-10-15T02:40:44.474Z,28.90
2022-10-15T02:43:48.114Z,28.70
2022-10-15T02:46:50.370Z,28.80
2022-10-15T02:49:52.268Z,28.40
2022-10-15T02:52:54.346Z,28.30
2022-10-15T02:55:56.223Z,28.40
2022-10-15T02:58:58.394Z,28.50
2022-10-15T03:02:00.268Z,28.70
2022-10-15T03:05:02.433Z,28.90
2022-10-15T03:08:04.381Z,28.80
2022-10-15T03:11:06.474Z,29.00
2022-10-15T03:14:08.396Z,29.60
2022-10-15T03:17:10.480Z,29.70
2022-10-15T03:20:12.315Z,29.80
2022-10-15T03:23:14.390Z,29.60
2022-10-15T03:26:16.239Z,29.50
2022-10-15T03:29:18.389Z,29.40
2022-10-15T03:32:20.585Z,29.20
2022-10-15T03:35:22.632Z,29.80
2022-10-15T03:38:24.523Z,29.80
2022-10-15T03:41:26.679Z,29.80
2022-10-15T03:44:28.656Z,29.90
2022-10-15T03:47:30.833Z,30.00
2022-10-15T03:50:32.960Z,30.00
2022-10-15T03:53:35.083Z,30.00
2022-10-15T03:56:37.436Z,30.00
2022-10-15T03:59:39.590Z,29.90
2022-10-15T04:02:41.648Z,29.90
2022-10-15T04:05:54.246Z,29.50
2022-10-15T04:08:57.230Z,29.30
2022-10-15T04:11:59.349Z,29.40
2022-10-15T04:15:01.386Z,29.40
2022-10-15T04:18:03.721Z,29.50
2022-10-15T04:21:05.643Z,29.50
2022-10-15T04:24:09.490Z,29.70
2022-10-15T04:30:15.185Z,29.60
2022-10-15T04:33:17.125Z,29.80
2022-10-15T04:36:19.178Z,29.80
2022-10-15T04:39:21.501Z,29.90
2022-10-15T04:42:23.598Z,29.90
2022-10-15T04:45:25.495Z,30.00
2022-10-15T04:48:32.967Z,30.00
2022-10-15T04:51:34.825Z,30.00
2022-10-15T04:54:37.071Z,29.90
2022-10-15T04:57:39.248Z,29.90
2022-10-15T05:00:41.408Z,29.90
2022-10-15T05:03:45.386Z,30.00
2022-10-15T05:06:47.718Z,30.10
2022-10-15T05:09:49.684Z,30.10
2022-10-15T05:12:54.289Z,30.00
2022-10-15T05:16:12.742Z,30.00
2022-10-15T05:19:16.812Z,30.00
2022-10-15T05:22:18.659Z,30.00
2022-10-15T05:25:21.001Z,29.90
2022-10-15T05:28:22.911Z,30.00
2022-10-15T05:31:28.151Z,30.00
2022-10-15T05:34:30.722Z,30.00
2022-10-15T05:37:32.936Z,30.50
2022-10-15T05:40:38.626Z,30.00
2022-10-15T05:43:41.696Z,29.90
2022-10-15T05:46:43.689Z,29.90
2022-10-15T05:49:45.868Z,30.50
2022-10-15T05:52:47.931Z,30.00
2022-10-15T05:55:53.357Z,30.00
2022-10-15T05:58:55.720Z,30.00
2022-10-15T06:01:57.914Z,29.90
2022-10-15T06:05:00.189Z,29.80
2022-10-15T06:08:02.307Z,29.90
2022-10-15T06:11:08.379Z,29.90
2022-10-15T06:14:11.807Z,29.80
2022-10-15T06:17:13.719Z,29.80
2022-10-15T06:20:15.989Z,29.90
2022-10-15T06:23:17.920Z,29.90
2022-10-15T06:26:20.055Z,29.80
2022-10-15T06:29:21.986Z,30.30
2022-10-15T06:32:24.096Z,29.90
2022-10-15T06:35:27.068Z,29.90
2022-10-15T06:38:29.336Z,29.90
2022-10-15T06:41:31.647Z,29.90
2022-10-15T06:44:33.780Z,29.90
2022-10-15T06:47:35.921Z,29.80
2022-10-15T06:50:39.234Z,29.80
2022-10-15T06:53:42.323Z,29.80
2022-10-15T06:56:44.397Z,29.80
2022-10-15T06:59:46.302Z,29.80
2022-10-15T07:02:48.408Z,29.90
2022-10-15T07:05:50.547Z,30.00
2022-10-15T07:08:52.948Z,29.90
2022-10-15T07:11:55.046Z,29.90
2022-10-15T07:14:57.193Z,29.70
2022-10-15T07:18:01.733Z,29.80
2022-10-15T07:21:05.990Z,29.80
2022-10-15T07:24:08.058Z,29.70
2022-10-15T07:27:18.809Z,29.80
2022-10-15T07:30:21.959Z,29.80
2022-10-15T07:33:24.053Z,29.90
2022-10-15T07:36:26.977Z,30.10
2022-10-15T07:39:29.387Z,30.00
2022-10-15T07:42:31.235Z,30.10
2022-10-15T07:45:33.425Z,30.10
2022-10-15T07:48:35.349Z,30.00
2022-10-15T07:51:37.581Z,30.00
2022-10-15T07:54:39.582Z,29.90
2022-10-15T07:57:41.682Z,30.00
2022-10-15T08:00:43.803Z,30.00
2022-10-15T08:03:46.103Z,29.80
2022-10-15T08:06:49.714Z,29.90
2022-10-15T08:09:52.088Z,29.90
2022-10-15T08:12:54.037Z,29.90
2022-10-15T08:16:00.122Z,29.90
2022-10-15T08:19:02.546Z,29.80
2022-10-15T08:22:05.729Z,29.80
2022-10-15T08:25:08.507Z,29.80
2022-10-15T08:28:10.875Z,29.40
2022-10-15T08:31:13.860Z,29.60
2022-10-15T08:34:15.882Z,29.20
2022-10-15T08:37:18.215Z,29.20
2022-10-15T08:40:22.325Z,29.20
2022-10-15T08:43:37.988Z,29.10
2022-10-15T08:46:46.416Z,28.90
2022-10-15T08:49:57.251Z,28.90
2022-10-15T08:52:59.985Z,28.90
2022-10-15T08:56:12.294Z,28.60
2022-10-15T08:59:16.965Z,28.60
2022-10-15T09:02:32.962Z,28.90
2022-10-15T09:05:50.733Z,28.70
2022-10-15T09:09:12.934Z,28.70
2022-10-15T09:12:43.425Z,28.70
2022-10-15T09:15:54.685Z,28.70
2022-10-15T09:19:00.652Z,28.70
2022-10-15T09:22:03.256Z,28.90
2022-10-15T09:25:22.153Z,28.70
2022-10-15T09:28:29.914Z,28.60
2022-10-15T09:31:43.783Z,28.90
2022-10-15T09:34:56.595Z,29.00
2022-10-15T09:38:05.965Z,28.60
2022-10-15T09:41:25.264Z,28.50
2022-10-15T09:44:33.855Z,28.30
2022-10-15T09:47:36.816Z,28.20
2022-10-15T09:50:47.455Z,28.20
2022-10-15T09:54:09.979Z,28.10
2022-10-15T09:57:15.869Z,28.30
2022-10-15T10:00:18.316Z,28.50
2022-10-15T10:03:23.142Z,28.50
2022-10-15T10:06:25.243Z,28.30
2022-10-15T10:09:34.781Z,28.20
2022-10-15T10:12:37.856Z,28.20
2022-10-15T10:15:42.931Z,28.20
2022-10-15T10:19:06.170Z,28.20
2022-10-15T10:22:20.975Z,28.60
2022-10-15T10:25:28.692Z,28.30
2022-10-15T10:28:56.548Z,28.30
2022-10-15T10:32:20.452Z,28.50
2022-10-15T10:35:24.875Z,29.30
2022-10-15T10:38:34.507Z,29.40
2022-10-15T10:41:49.645Z,29.20
2022-10-15T10:44:53.049Z,28.80
2022-10-15T10:47:55.211Z,28.80
2022-10-15T10:51:09.178Z,28.90
2022-10-15T10:54:14.672Z,28.60
2022-10-15T10:57:21.827Z,28.70
2022-10-15T11:00:44.711Z,28.70
2022-10-15T11:03:50.513Z,29.00
2022-10-15T11:07:18.427Z,29.10
2022-10-15T11:10:52.525Z,29.00
2022-10-15T11:14:21.957Z,28.90
2022-10-15T11:17:30.508Z,29.00
2022-10-15T11:21:06.774Z,29.20
2022-10-15T11:24:48.309Z,28.90
2022-10-15T11:28:15.053Z,29.10
2022-10-15T11:35:24.074Z,29.10
2022-10-15T11:38:51.641Z,29.20
2022-10-15T11:42:15.679Z,29.10
2022-10-15T11:45:39.615Z,29.10
2022-10-15T11:49:11.674Z,28.90
2022-10-15T11:52:24.363Z,29.00
2022-10-15T11:55:37.727Z,29.00
2022-10-15T11:58:48.069Z,29.10
2022-10-15T12:01:54.949Z,29.10
2022-10-15T12:05:01.910Z,29.10
2022-10-15T12:11:25.135Z,29.40
2022-10-15T12:14:38.754Z,29.20
2022-10-15T12:18:03.929Z,29.20
2022-10-15T12:21:39.060Z,29.20
2022-10-15T12:24:51.778Z,29.50
2022-10-15T12:28:05.875Z,29.20
2022-10-15T12:31:08.316Z,29.20
2022-10-15T12:34:39.391Z,29.30
2022-10-15T12:37:44.096Z,29.60
2022-10-15T12:40:46.982Z,29.70
2022-10-15T12:44:04.925Z,29.80
2022-10-15T12:47:10.358Z,29.80
2022-10-15T12:50:24.621Z,30.00
2022-10-15T12:53:28.737Z,30.00
2022-10-15T12:56:40.618Z,30.10
2022-10-15T12:59:45.290Z,29.90
2022-10-15T13:02:48.319Z,30.00
2022-10-15T13:05:53.281Z,29.80
2022-10-15T13:09:17.250Z,29.70
2022-10-15T13:12:25.368Z,29.70
2022-10-15T13:15:29.646Z,29.90
2022-10-15T13:18:31.902Z,29.70
2022-10-15T13:21:54.869Z,30.00
2022-10-15T13:24:57.117Z,30.00
2022-10-15T13:27:59.142Z,30.00
2022-10-15T13:31:05.475Z,29.90
2022-10-15T13:34:26.749Z,29.80
2022-10-15T13:37:32.594Z,29.60
2022-10-15T13:40:35.186Z,30.60
2022-10-15T13:43:37.202Z,30.00
2022-10-15T13:46:39.674Z,29.90
2022-10-15T13:49:41.580Z,29.80
2022-10-15T13:52:57.846Z,29.80
2022-10-15T13:56:02.799Z,30.00
2022-10-15T13:59:05.233Z,30.20
2022-10-15T14:02:12.127Z,30.30
2022-10-15T14:05:17.405Z,30.50
2022-10-15T14:08:25.251Z,30.70
2022-10-15T14:11:29.105Z,30.70
2022-10-15T14:14:31.002Z,30.90
2022-10-15T14:17:33.236Z,30.50
2022-10-15T14:20:35.154Z,30.20
2022-10-15T14:23:37.511Z,30.20
2022-10-15T14:26:39.715Z,30.50
2022-10-15T14:29:43.444Z,30.50
2022-10-15T14:32:47.677Z,30.40
2022-10-15T14:36:12.036Z,30.30
2022-10-15T14:39:35.891Z,30.40
2022-10-15T14:42:47.841Z,30.40
2022-10-15T14:45:52.491Z,30.30
2022-10-15T14:48:54.629Z,30.20
2022-10-15T14:52:07.055Z,30.00
2022-10-15T14:55:28.620Z,30.00
2022-10-15T14:58:30.810Z,30.00
2022-10-15T15:01:35.454Z,30.20
2022-10-15T15:04:41.999Z,30.30
2022-10-15T15:07:44.177Z,30.30
2022-10-15T15:13:51.631Z,30.40
2022-10-15T15:16:53.609Z,30.50
2022-10-15T15:19:57.668Z,30.60
2022-10-15T15:22:59.805Z,30.70
2022-10-15T15:26:02.824Z,30.90
2022-10-15T15:29:13.905Z,30.90
2022-10-15T15:32:16.462Z,30.90
2022-10-15T15:35:33.821Z,31.10
2022-10-15T15:41:42.808Z,31.20
2022-10-15T15:44:45.418Z,31.20
2022-10-15T15:47:47.708Z,31.20
2022-10-15T15:50:49.829Z,31.30
2022-10-15T15:53:52.073Z,31.50
2022-10-15T15:56:54.375Z,31.60
2022-10-15T16:14:20.088Z,33.00
2022-10-15T16:17:24.356Z,37.30
2022-10-15T16:20:29.545Z,36.40
2022-10-15T16:23:31.729Z,36.40
2022-10-15T16:26:33.701Z,35.90
2022-10-15T16:29:35.991Z,35.30
2022-10-15T16:32:37.912Z,35.00
2022-10-15T16:35:40.079Z,34.60
2022-10-15T16:38:43.385Z,34.40
2022-10-15T16:41:45.518Z,34.30
2022-10-15T16:44:47.493Z,34.00
2022-10-15T16:47:49.641Z,34.00
2022-10-15T16:51:06.891Z,34.10
2022-10-15T16:54:15.564Z,33.90
2022-10-15T16:57:17.605Z,33.80
2022-10-15T17:00:19.791Z,33.70
2022-10-15T17:03:21.712Z,33.60
2022-10-15T17:06:26.197Z,33.50
2022-10-15T17:09:28.109Z,33.40
2022-10-15T17:12:30.180Z,33.40
2022-10-15T17:15:32.090Z,33.40
2022-10-15T17:18:34.166Z,33.50
2022-10-15T17:21:36.396Z,33.60
2022-10-15T17:24:38.447Z,33.80
2022-10-15T17:27:40.640Z,34.00
2022-10-15T17:30:42.699Z,33.90
2022-10-15T17:33:45.300Z,33.70
2022-10-15T17:36:48.959Z,33.70
2022-10-15T17:39:52.782Z,33.60
2022-10-15T17:42:55.851Z,33.50
2022-10-15T17:46:02.231Z,33.60
2022-10-15T17:49:04.605Z,33.50
2022-10-15T17:52:06.861Z,33.50
2022-10-15T17:55:09.269Z,33.30
2022-10-15T17:58:11.218Z,33.20
2022-10-15T18:01:33.729Z,33.50
2022-10-15T18:04:47.283Z,33.60
2022-10-15T18:07:49.492Z,33.70
2022-10-15T18:10:53.412Z,33.70
2022-10-15T18:13:55.683Z,33.60
2022-10-15T18:17:01.114Z,33.60
2022-10-15T18:20:04.000Z,33.70
2022-10-15T18:23:06.163Z,33.70
2022-10-15T18:26:18.606Z,33.90
2022-10-15T18:29:22.742Z,33.80
2022-10-15T18:32:26.962Z,33.70
2022-10-15T18:35:29.303Z,33.60
2022-10-15T18:38:31.372Z,33.50
2022-10-15T18:41:35.741Z,33.40
2022-10-15T18:44:40.865Z,33.20
2022-10-15T18:47:43.423Z,33.10
2022-10-15T18:53:48.752Z,33.20
2022-10-15T18:56:52.638Z,33.30
2022-10-15T18:59:54.643Z,33.10
2022-10-15T19:02:57.258Z,33.20
2022-10-15T19:05:59.145Z,33.20
2022-10-15T19:09:06.121Z,33.30
2022-10-15T19:12:08.048Z,33.30
2022-10-15T19:15:11.174Z,33.20
2022-10-15T19:18:15.980Z,33.30
2022-10-15T19:21:19.545Z,33.20
2022-10-15T19:24:22.527Z,33.10
2022-10-15T19:27:25.036Z,32.90
2022-10-15T19:30:28.298Z,32.70
2022-10-15T19:33:31.386Z,32.60
2022-10-15T19:36:35.838Z,32.60
2022-10-15T19:39:41.176Z,32.50
2022-10-15T19:42:43.059Z,32.60
2022-10-15T19:45:48.695Z,32.50
2022-10-15T19:48:50.526Z,32.50
2022-10-15T19:51:52.829Z,32.50
2022-10-15T19:54:54.827Z,32.50
2022-10-15T19:57:56.927Z,32.50
2022-10-15T20:00:58.999Z,32.50
2022-10-15T20:04:06.317Z,32.50
2022-10-15T20:07:08.844Z,32.50
2022-10-15T20:10:12.344Z,32.40
2022-10-15T20:13:16.209Z,32.40
2022-10-15T20:16:20.913Z,32.30
2022-10-15T20:19:25.065Z,32.20
2022-10-15T20:22:28.628Z,32.30
2022-10-15T20:25:30.868Z,32.40
2022-10-15T20:28:36.847Z,32.50
2022-10-15T20:31:38.841Z,32.40
2022-10-15T20:34:40.946Z,32.50
2022-10-15T20:37:42.792Z,32.50
2022-10-15T20:40:44.966Z,32.50
2022-10-15T20:43:51.806Z,32.50
2022-10-15T20:46:58.761Z,32.50
2022-10-15T20:50:02.018Z,32.40
2022-10-15T20:53:04.104Z,32.40
2022-10-15T20:56:06.618Z,32.50
2022-10-15T20:59:08.995Z,32.50
2022-10-15T21:02:10.934Z,32.60
2022-10-15T21:05:13.348Z,32.60
2022-10-15T21:08:15.312Z,32.60
2022-10-15T21:11:17.424Z,32.60
2022-10-15T21:14:19.493Z,32.60
2022-10-15T21:17:21.515Z,33.30
2022-10-15T21:20:23.823Z,32.70
2022-10-15T21:23:25.837Z,32.70
2022-10-15T21:26:28.119Z,32.70
2022-10-15T21:29:30.447Z,32.60
2022-10-15T21:32:32.784Z,32.60
2022-10-15T21:35:34.895Z,32.70
2022-10-15T21:38:37.113Z,32.80
2022-10-15T21:41:40.057Z,32.90
2022-10-15T21:44:42.921Z,32.80
2022-10-15T21:47:44.990Z,32.70
2022-10-15T21:50:47.967Z,32.60
2022-10-15T21:53:50.338Z,32.60
2022-10-15T21:56:52.171Z,32.40
2022-10-15T21:59:54.453Z,32.40
2022-10-15T22:02:56.434Z,32.50
2022-10-15T22:06:01.043Z,32.40
2022-10-15T22:09:04.701Z,32.60
2022-10-15T22:12:07.297Z,32.90
2022-10-15T22:15:09.580Z,33.00
2022-10-15T22:18:11.944Z,33.00
2022-10-15T22:21:19.496Z,33.00
2022-10-15T22:24:21.667Z,33.00
2022-10-15T22:27:25.818Z,32.90
2022-10-15T22:30:27.887Z,33.00
2022-10-15T22:33:29.715Z,32.90
2022-10-15T22:36:31.914Z,33.00
2022-10-15T22:39:35.211Z,32.90
2022-10-15T22:42:38.203Z,32.90
2022-10-15T22:45:40.034Z,33.00
2022-10-15T22:48:42.999Z,32.70
2022-10-15T22:51:45.323Z,32.70
2022-10-15T22:54:47.377Z,32.50
2022-10-15T22:57:49.952Z,32.40
2022-10-15T23:00:52.878Z,32.30
2022-10-15T23:03:57.764Z,32.30
2022-10-15T23:06:59.826Z,32.10
2022-10-15T23:10:01.663Z,31.90
2022-10-15T23:13:03.943Z,31.90
2022-10-15T23:16:16.250Z,32.00
2022-10-15T23:19:23.294Z,32.00
2022-10-15T23:22:25.576Z,32.00
2022-10-15T23:25:27.854Z,32.00
2022-10-15T23:28:30.032Z,32.20
2022-10-15T23:31:35.044Z,32.20
2022-10-15T23:34:37.050Z,32.30
2022-10-15T23:37:42.370Z,32.20
2022-10-15T23:40:44.312Z,32.10
2022-10-15T23:43:46.715Z,32.10
2022-10-15T23:46:48.662Z,32.20
2022-10-15T23:49:50.932Z,32.30
2022-10-15T23:52:52.879Z,32.30
2022-10-15T23:55:55.001Z,32.30
2022-10-15T23:58:59.340Z,32.40
